Time;durP1;ratioP1;P1;durP2;ratioP2;P2;SDS_P1;SDS_P2;PMS_P1;PMS_P2;Temp;Humidity;BMP_temperature;BMP_pressure;BME280_temperature;BME280_humidity;BME280_pressure;Samples;Min_cycle;Max_cycle;Signal;HPM_P1;HPM_P2
2021/12/02 00:01:29;;;;;;;31.42;20.20;;;;;;;;;;5074824;28;20484;-44
2021/12/02 00:03:55;;;;;;;34.25;21.48;;;;;;;;;;5080911;28;20036;-46
2021/12/02 00:06:21;;;;;;;35.78;20.52;;;;;;;;;;5074590;28;20089;-45
2021/12/02 00:08:49;;;;;;;35.10;22.45;;;;;;;;;;5075858;28;20415;-44
2021/12/02 00:11:16;;;;;;;60.47;31.35;;;;;;;;;;5080736;28;20028;-44
2021/12/02 00:13:54;;;;;;;64.85;34.22;;;;;;;;;;5074368;28;20036;-46
2021/12/02 00:17:02;;;;;;;70.97;34.35;;;;;;;;;;5080016;28;20029;-46
2021/12/02 00:22:11;;;;;;;56.75;32.53;;;;;;;;;;5075086;28;20428;-44
2021/12/02 00:24:39;;;;;;;57.58;33.53;;;;;;;;;;5073564;28;20094;-44
2021/12/02 00:27:09;;;;;;;49.83;30.58;;;;;;;;;;5076565;28;20560;-45
2021/12/02 00:29:39;;;;;;;48.42;30.27;;;;;;;;;;5073872;28;20056;-45
2021/12/02 00:32:09;;;;;;;47.05;28.48;;;;;;;;;;5076395;28;20031;-44
2021/12/02 00:34:41;;;;;;;44.25;28.25;;;;;;;;;;5085497;28;20056;-44
2021/12/02 00:37:08;;;;;;;38.72;25.63;;;;;;;;;;5082721;28;20511;-44
2021/12/02 00:39:34;;;;;;;45.38;27.08;;;;;;;;;;5078014;28;20043;-44
2021/12/02 00:42:00;;;;;;;42.38;27.17;;;;;;;;;;5077630;28;20440;-44
2021/12/02 00:44:29;;;;;;;48.33;29.45;;;;;;;;;;5076178;28;20033;-44
2021/12/02 00:46:55;;;;;;;42.97;27.55;;;;;;;;;;5076460;28;20449;-45
2021/12/02 00:49:21;;;;;;;49.50;29.45;;;;;;;;;;5074599;28;20032;-44
2021/12/02 00:51:59;;;;;;;41.15;26.75;;;;;;;;;;5079760;28;20032;-43
2021/12/02 00:54:26;;;;;;;48.20;29.67;;;;;;;;;;5071801;28;20044;-44
2021/12/02 00:56:53;;;;;;;51.00;29.92;;;;;;;;;;5074767;28;20060;-44
2021/12/02 00:59:21;;;;;;;51.95;32.20;;;;;;;;;;5074944;28;20031;-44
2021/12/02 01:01:48;;;;;;;57.13;32.00;;;;;;;;;;5078691;28;20051;-45
2021/12/02 01:04:21;;;;;;;51.55;32.03;;;;;;;;;;5074960;28;20036;-46
2021/12/02 01:06:47;;;;;;;62.92;36.78;;;;;;;;;;5074672;28;20044;-44
2021/12/02 01:09:13;;;;;;;68.55;36.35;;;;;;;;;;5081574;28;20044;-44
2021/12/02 01:11:40;;;;;;;65.63;36.83;;;;;;;;;;5075710;28;20028;-44
2021/12/02 01:14:07;;;;;;;73.82;39.17;;;;;;;;;;5080300;28;20032;-44
2021/12/02 01:16:33;;;;;;;76.07;38.88;;;;;;;;;;5086009;28;20035;-45
2021/12/02 01:18:59;;;;;;;65.00;35.92;;;;;;;;;;5078114;28;20063;-45
2021/12/02 01:21:27;;;;;;;59.60;30.98;;;;;;;;;;5076304;28;20040;-44
2021/12/02 01:24:02;;;;;;;67.07;32.35;;;;;;;;;;5073678;28;20088;-44
2021/12/02 01:26:30;;;;;;;56.08;33.00;;;;;;;;;;5074752;28;20029;-44
2021/12/02 01:28:57;;;;;;;81.72;33.38;;;;;;;;;;5078167;28;20024;-45
2021/12/02 01:31:28;;;;;;;51.80;29.63;;;;;;;;;;5075666;28;20518;-44
2021/12/02 01:33:55;;;;;;;111.22;45.53;;;;;;;;;;5081088;28;20060;-43
2021/12/02 01:36:23;;;;;;;149.25;58.47;;;;;;;;;;5076290;28;20456;-45
2021/12/02 01:38:49;;;;;;;137.52;59.58;;;;;;;;;;5071294;28;20032;-44
2021/12/02 01:41:15;;;;;;;111.22;53.50;;;;;;;;;;5075269;28;20028;-47
2021/12/02 01:43:50;;;;;;;79.53;40.95;;;;;;;;;;5073893;28;20028;-44
2021/12/02 01:46:19;;;;;;;50.38;30.13;;;;;;;;;;5073149;28;20033;-44
2021/12/02 01:48:57;;;;;;;56.60;31.73;;;;;;;;;;5087759;28;20031;-45
2021/12/02 01:51:26;;;;;;;53.78;30.95;;;;;;;;;;5079621;28;20484;-45
2021/12/02 01:54:02;;;;;;;49.03;28.85;;;;;;;;;;5077529;28;20119;-45
2021/12/02 01:56:31;;;;;;;42.85;25.10;;;;;;;;;;5079581;28;20469;-44
2021/12/02 01:59:11;;;;;;;39.67;24.52;;;;;;;;;;5076653;28;20032;-44
2021/12/02 02:01:37;;;;;;;39.63;25.13;;;;;;;;;;5072377;28;20776;-46
2021/12/02 02:04:03;;;;;;;39.35;24.08;;;;;;;;;;5075023;28;20082;-44
2021/12/02 02:06:36;;;;;;;39.33;22.52;;;;;;;;;;5073138;28;20044;-44
2021/12/02 02:09:03;;;;;;;32.97;21.02;;;;;;;;;;5078212;28;20032;-45
2021/12/02 02:11:30;;;;;;;35.15;21.23;;;;;;;;;;5075823;28;20028;-47
2021/12/02 02:13:58;;;;;;;31.67;19.63;;;;;;;;;;5081626;28;20044;-44
2021/12/02 02:16:25;;;;;;;24.88;16.02;;;;;;;;;;5079712;28;20043;-45
2021/12/02 02:18:53;;;;;;;23.42;16.58;;;;;;;;;;5073996;28;20504;-44
2021/12/02 02:21:21;;;;;;;21.77;16.20;;;;;;;;;;5082028;28;20033;-47
2021/12/02 02:23:55;;;;;;;21.88;15.65;;;;;;;;;;5078679;28;20051;-44
2021/12/02 02:26:26;;;;;;;22.10;16.23;;;;;;;;;;5075891;28;20032;-45
2021/12/02 02:28:54;;;;;;;23.17;17.23;;;;;;;;;;5083704;28;20035;-46
2021/12/02 02:31:20;;;;;;;22.55;16.52;;;;;;;;;;5084831;28;20273;-45
2021/12/02 02:33:50;;;;;;;23.52;17.15;;;;;;;;;;5082088;28;20108;-44
2021/12/02 02:36:24;;;;;;;39.25;17.05;;;;;;;;;;5081281;28;20031;-45
2021/12/02 02:38:57;;;;;;;29.80;17.50;;;;;;;;;;5078681;28;20028;-45
2021/12/02 02:41:28;;;;;;;24.15;16.42;;;;;;;;;;5080605;28;20020;-47
2021/12/02 02:43:58;;;;;;;49.73;19.70;;;;;;;;;;5075210;28;20028;-44
2021/12/02 02:46:36;;;;;;;38.70;18.77;;;;;;;;;;5084760;28;20024;-44
2021/12/02 02:49:05;;;;;;;41.55;18.10;;;;;;;;;;5079764;28;20210;-43
2021/12/02 02:51:32;;;;;;;28.02;16.70;;;;;;;;;;5081163;28;20039;-44
2021/12/02 02:54:04;;;;;;;26.30;17.10;;;;;;;;;;5080075;28;20452;-44
2021/12/02 02:56:31;;;;;;;20.98;16.25;;;;;;;;;;5084104;28;20060;-44
2021/12/02 02:59:20;;;;;;;22.15;16.05;;;;;;;;;;5076975;28;20504;-45
2021/12/02 03:01:53;;;;;;;19.45;14.95;;;;;;;;;;5085199;28;20130;-45
2021/12/02 03:07:03;;;;;;;26.27;15.95;;;;;;;;;;5076089;28;20430;-44
2021/12/02 03:12:07;;;;;;;22.83;17.60;;;;;;;;;;5084629;28;20116;-44
2021/12/02 03:17:21;;;;;;;30.27;20.38;;;;;;;;;;5060379;28;20136;-44
2021/12/02 03:19:47;;;;;;;34.88;21.75;;;;;;;;;;5058980;28;20214;-44
2021/12/02 03:22:15;;;;;;;30.98;19.17;;;;;;;;;;5067727;28;20041;-44
2021/12/02 03:24:41;;;;;;;27.67;17.65;;;;;;;;;;5065523;28;20600;-44
2021/12/02 03:27:07;;;;;;;24.52;16.73;;;;;;;;;;5062171;28;20052;-44
2021/12/02 03:29:33;;;;;;;21.65;15.35;;;;;;;;;;5063444;28;20041;-44
2021/12/02 03:31:59;;;;;;;23.15;15.52;;;;;;;;;;5066718;28;22020;-45
2021/12/02 03:34:25;;;;;;;27.30;16.95;;;;;;;;;;5064559;28;20051;-44
2021/12/02 03:36:52;;;;;;;23.50;16.20;;;;;;;;;;5066839;28;20036;-44
2021/12/02 03:39:18;;;;;;;24.88;15.85;;;;;;;;;;5067547;28;20424;-45
2021/12/02 03:41:45;;;;;;;20.40;14.32;;;;;;;;;;5064788;28;20491;-44
2021/12/02 03:44:11;;;;;;;20.58;14.50;;;;;;;;;;5066964;28;20544;-44
2021/12/02 03:46:38;;;;;;;24.85;15.73;;;;;;;;;;5061593;28;20469;-45
2021/12/02 03:49:04;;;;;;;21.13;14.90;;;;;;;;;;5064115;28;20048;-44
2021/12/02 03:51:30;;;;;;;20.88;15.02;;;;;;;;;;5064114;28;20119;-44
2021/12/02 03:53:57;;;;;;;20.90;14.20;;;;;;;;;;5066610;28;20127;-46
2021/12/02 03:56:23;;;;;;;23.25;15.20;;;;;;;;;;5077213;28;20039;-44
2021/12/02 03:58:50;;;;;;;25.00;15.55;;;;;;;;;;5076745;28;20028;-44
2021/12/02 04:01:17;;;;;;;18.67;13.15;;;;;;;;;;5078995;28;20039;-44
2021/12/02 04:03:43;;;;;;;21.15;13.98;;;;;;;;;;5082414;28;20028;-44
2021/12/02 04:06:10;;;;;;;20.08;13.02;;;;;;;;;;5077009;28;20032;-45
2021/12/02 04:08:50;;;;;;;20.08;13.27;;;;;;;;;;5078705;28;20041;-44
2021/12/02 04:16:38;;;;;;;20.33;12.63;;;;;;;;;;5078524;28;20187;-45
2021/12/02 04:19:08;;;;;;;22.98;13.07;;;;;;;;;;5072456;28;20056;-45
2021/12/02 04:21:33;;;;;;;17.33;12.27;;;;;;;;;;5085513;28;20073;-45
2021/12/02 04:24:00;;;;;;;16.95;12.10;;;;;;;;;;5078227;28;20032;-45
2021/12/02 04:26:26;;;;;;;19.80;12.77;;;;;;;;;;5074667;28;20025;-44
2021/12/02 04:28:51;;;;;;;19.42;12.60;;;;;;;;;;5074995;28;20031;-45
2021/12/02 04:31:17;;;;;;;18.15;11.75;;;;;;;;;;5079837;28;20050;-45
2021/12/02 04:33:43;;;;;;;21.65;12.23;;;;;;;;;;5075277;28;20032;-44
2021/12/02 04:36:09;;;;;;;18.38;11.88;;;;;;;;;;5074412;28;20037;-44
2021/12/02 04:38:35;;;;;;;18.98;11.52;;;;;;;;;;5075670;28;20503;-44
2021/12/02 04:41:01;;;;;;;17.88;12.23;;;;;;;;;;5078956;28;20470;-44
2021/12/02 04:43:27;;;;;;;18.48;11.93;;;;;;;;;;5077461;28;20036;-45
2021/12/02 04:45:53;;;;;;;20.00;12.23;;;;;;;;;;5077180;28;20519;-44
2021/12/02 04:48:19;;;;;;;19.35;12.20;;;;;;;;;;5073462;28;20020;-44
2021/12/02 04:50:46;;;;;;;17.10;10.93;;;;;;;;;;5074143;28;20043;-44
2021/12/02 04:53:12;;;;;;;18.38;10.88;;;;;;;;;;5081385;28;20493;-44
2021/12/02 04:55:38;;;;;;;21.38;12.90;;;;;;;;;;5078121;28;20036;-44
2021/12/02 04:58:04;;;;;;;15.68;10.90;;;;;;;;;;5078332;28;20492;-44
2021/12/02 05:00:31;;;;;;;18.65;12.13;;;;;;;;;;5076963;28;20515;-43
2021/12/02 05:02:56;;;;;;;18.77;12.23;;;;;;;;;;5076488;28;20045;-44
2021/12/02 05:05:23;;;;;;;20.98;11.50;;;;;;;;;;5073644;28;20039;-44
2021/12/02 05:07:52;;;;;;;15.90;10.57;;;;;;;;;;5077810;28;20114;-44
2021/12/02 05:10:19;;;;;;;14.90;11.57;;;;;;;;;;5076323;28;20032;-45
2021/12/02 05:12:44;;;;;;;13.35;9.98;;;;;;;;;;5081573;28;20511;-46
2021/12/02 05:15:10;;;;;;;20.13;10.77;;;;;;;;;;5078313;28;20028;-44
2021/12/02 05:17:36;;;;;;;17.35;11.50;;;;;;;;;;5072136;28;20040;-45
2021/12/02 05:20:03;;;;;;;19.13;12.68;;;;;;;;;;5074327;28;20107;-45
2021/12/02 05:22:29;;;;;;;20.90;12.63;;;;;;;;;;5078895;28;20032;-44
2021/12/02 05:24:55;;;;;;;20.23;13.70;;;;;;;;;;5082424;28;20042;-46
2021/12/02 05:27:20;;;;;;;17.27;11.45;;;;;;;;;;5079637;28;20112;-45
2021/12/02 05:29:46;;;;;;;17.08;10.90;;;;;;;;;;5076397;28;20052;-47
2021/12/02 05:32:12;;;;;;;13.43;10.40;;;;;;;;;;5079462;28;20105;-45
2021/12/02 05:34:37;;;;;;;18.90;11.63;;;;;;;;;;5071534;28;20045;-44
2021/12/02 05:37:04;;;;;;;17.08;12.35;;;;;;;;;;5079559;28;20032;-44
2021/12/02 05:39:30;;;;;;;23.83;15.65;;;;;;;;;;5076761;28;20027;-46
2021/12/02 05:41:56;;;;;;;25.00;17.05;;;;;;;;;;5070714;28;20445;-44
2021/12/02 05:44:22;;;;;;;22.73;16.77;;;;;;;;;;5079870;28;20107;-44
2021/12/02 05:46:48;;;;;;;19.33;15.15;;;;;;;;;;5079378;28;20484;-44
2021/12/02 05:49:14;;;;;;;19.27;14.63;;;;;;;;;;5075010;28;20024;-44
2021/12/02 05:51:42;;;;;;;17.67;14.13;;;;;;;;;;5084753;28;20032;-44
2021/12/02 05:54:11;;;;;;;21.45;14.35;;;;;;;;;;5083104;28;20483;-44
2021/12/02 05:56:37;;;;;;;18.95;13.75;;;;;;;;;;5080116;28;20028;-44
2021/12/02 05:59:02;;;;;;;16.10;12.32;;;;;;;;;;5076752;28;20024;-45
2021/12/02 06:01:28;;;;;;;15.27;11.80;;;;;;;;;;5084740;28;20028;-44
2021/12/02 06:03:54;;;;;;;16.77;11.65;;;;;;;;;;5082897;28;20056;-46
2021/12/02 06:06:23;;;;;;;16.70;11.57;;;;;;;;;;5077630;28;20086;-45
2021/12/02 06:08:49;;;;;;;14.43;11.02;;;;;;;;;;5076662;28;20036;-46
2021/12/02 06:11:15;;;;;;;18.35;12.13;;;;;;;;;;5084712;28;20307;-46
2021/12/02 06:13:41;;;;;;;14.10;10.68;;;;;;;;;;5079660;28;20090;-45
2021/12/02 06:16:08;;;;;;;13.98;10.73;;;;;;;;;;5084418;28;20036;-46
2021/12/02 06:18:33;;;;;;;14.55;11.23;;;;;;;;;;5074306;28;20059;-47
2021/12/02 06:20:59;;;;;;;16.45;11.63;;;;;;;;;;5077271;28;20040;-45
2021/12/02 06:23:25;;;;;;;14.80;10.77;;;;;;;;;;5094201;28;20777;-44
2021/12/02 06:25:51;;;;;;;20.35;11.10;;;;;;;;;;5075269;28;20036;-44
2021/12/02 06:28:18;;;;;;;15.90;10.38;;;;;;;;;;5074258;28;20039;-44
2021/12/02 06:30:44;;;;;;;15.57;10.13;;;;;;;;;;5074912;28;20044;-44
2021/12/02 06:33:10;;;;;;;13.48;8.98;;;;;;;;;;5074968;28;20044;-43
2021/12/02 06:35:36;;;;;;;13.20;9.57;;;;;;;;;;5076945;28;20083;-45
2021/12/02 06:38:02;;;;;;;12.20;8.75;;;;;;;;;;5077757;28;20052;-44
2021/12/02 06:40:29;;;;;;;14.35;9.35;;;;;;;;;;5078585;28;20101;-44
2021/12/02 06:42:55;;;;;;;11.85;8.82;;;;;;;;;;5085262;28;20543;-43
2021/12/02 06:45:21;;;;;;;11.52;7.97;;;;;;;;;;5080705;28;20040;-44
2021/12/02 06:47:50;;;;;;;12.60;8.52;;;;;;;;;;5078277;28;20396;-44
2021/12/02 06:50:18;;;;;;;12.13;8.43;;;;;;;;;;5079412;28;20029;-44
2021/12/02 06:52:46;;;;;;;13.52;9.07;;;;;;;;;;5076869;28;20484;-43
2021/12/02 06:55:12;;;;;;;11.70;8.35;;;;;;;;;;5078234;28;20028;-45
2021/12/02 06:57:39;;;;;;;13.40;8.82;;;;;;;;;;5074594;28;20115;-45
2021/12/02 07:00:08;;;;;;;10.43;8.27;;;;;;;;;;5073093;28;20090;-45
2021/12/02 07:02:35;;;;;;;12.93;8.57;;;;;;;;;;5078561;28;20035;-44
2021/12/02 07:05:02;;;;;;;10.60;7.55;;;;;;;;;;5093706;28;20035;-44
2021/12/02 07:07:33;;;;;;;9.00;7.60;;;;;;;;;;5076983;28;20098;-44
2021/12/02 07:09:59;;;;;;;9.55;7.75;;;;;;;;;;5076892;28;20046;-44
2021/12/02 07:12:33;;;;;;;10.82;8.10;;;;;;;;;;5078710;28;20032;-45
2021/12/02 07:15:06;;;;;;;12.35;7.70;;;;;;;;;;5075624;28;20028;-43
2021/12/02 07:17:32;;;;;;;11.35;7.78;;;;;;;;;;5077736;28;20027;-43
2021/12/02 07:20:00;;;;;;;9.25;7.45;;;;;;;;;;5082522;28;20028;-44
2021/12/02 07:22:26;;;;;;;10.95;7.72;;;;;;;;;;5080531;28;20063;-43
2021/12/02 07:24:52;;;;;;;14.55;7.20;;;;;;;;;;5076048;28;20046;-42
2021/12/02 07:27:18;;;;;;;11.75;7.82;;;;;;;;;;5077292;28;20388;-43
2021/12/02 07:29:43;;;;;;;12.82;7.55;;;;;;;;;;5072229;28;20111;-43
2021/12/02 07:32:11;;;;;;;13.18;7.63;;;;;;;;;;5076793;28;20461;-45
2021/12/02 07:34:43;;;;;;;10.15;7.88;;;;;;;;;;5072663;28;20025;-43
2021/12/02 07:37:11;;;;;;;13.63;8.52;;;;;;;;;;5080057;28;20032;-44
2021/12/02 07:39:37;;;;;;;11.48;8.00;;;;;;;;;;5077800;28;20037;-44
2021/12/02 07:42:02;;;;;;;12.32;8.20;;;;;;;;;;5086180;28;20366;-43
2021/12/02 07:44:28;;;;;;;13.63;8.40;;;;;;;;;;5080929;28;20146;-45
2021/12/02 07:46:56;;;;;;;12.77;8.77;;;;;;;;;;5095725;28;20028;-43
2021/12/02 07:49:21;;;;;;;12.75;8.90;;;;;;;;;;5079326;28;20580;-43
2021/12/02 07:51:50;;;;;;;10.32;7.68;;;;;;;;;;5077025;28;20443;-44
2021/12/02 07:54:17;;;;;;;16.23;8.75;;;;;;;;;;5073045;28;20077;-43
2021/12/02 07:56:46;;;;;;;10.27;7.80;;;;;;;;;;5077755;28;20056;-43
2021/12/02 07:59:16;;;;;;;12.70;7.68;;;;;;;;;;5079465;28;20077;-42
2021/12/02 08:01:43;;;;;;;12.43;7.38;;;;;;;;;;5072195;28;20173;-45
2021/12/02 08:04:09;;;;;;;11.98;7.90;;;;;;;;;;5083622;28;20031;-44
2021/12/02 08:06:35;;;;;;;8.90;7.65;;;;;;;;;;5081824;28;20028;-43
2021/12/02 08:09:01;;;;;;;12.85;8.02;;;;;;;;;;5083939;28;20032;-44
2021/12/02 08:11:26;;;;;;;12.50;8.00;;;;;;;;;;5085289;28;20123;-45
2021/12/02 08:13:55;;;;;;;11.85;8.32;;;;;;;;;;5073466;28;20106;-45
2021/12/02 08:16:21;;;;;;;12.90;8.55;;;;;;;;;;5077142;28;20028;-44
2021/12/02 08:18:47;;;;;;;12.07;8.70;;;;;;;;;;5083572;28;20031;-44
2021/12/02 08:21:12;;;;;;;10.55;8.07;;;;;;;;;;5077751;28;20025;-44
2021/12/02 08:23:38;;;;;;;13.25;8.27;;;;;;;;;;5072442;28;20037;-45
2021/12/02 08:26:04;;;;;;;12.45;8.63;;;;;;;;;;5077346;28;20035;-44
2021/12/02 08:28:30;;;;;;;11.65;8.32;;;;;;;;;;5080349;28;20135;-45
2021/12/02 08:30:57;;;;;;;10.52;8.50;;;;;;;;;;5074222;28;20401;-44
2021/12/02 08:33:23;;;;;;;14.05;8.57;;;;;;;;;;5078489;28;20033;-44
2021/12/02 08:35:48;;;;;;;11.95;7.82;;;;;;;;;;5071693;28;20129;-44
2021/12/02 08:38:18;;;;;;;14.50;8.32;;;;;;;;;;5072078;28;20115;-44
2021/12/02 08:40:47;;;;;;;11.43;7.85;;;;;;;;;;5075696;28;20067;-45
2021/12/02 08:43:13;;;;;;;11.40;8.13;;;;;;;;;;5075566;28;20111;-44
2021/12/02 08:45:43;;;;;;;13.95;8.20;;;;;;;;;;5076966;28;20434;-45
2021/12/02 08:48:09;;;;;;;12.75;8.10;;;;;;;;;;5074863;28;20064;-45
2021/12/02 08:50:37;;;;;;;10.98;6.95;;;;;;;;;;5077274;28;20035;-43
2021/12/02 08:53:04;;;;;;;8.98;6.10;;;;;;;;;;5077101;28;20389;-45
2021/12/02 08:55:30;;;;;;;9.15;6.07;;;;;;;;;;5076497;28;20036;-44
2021/12/02 08:57:57;;;;;;;14.55;7.13;;;;;;;;;;5079415;28;20122;-45
2021/12/02 09:00:27;;;;;;;9.88;6.90;;;;;;;;;;5076207;28;20035;-44
2021/12/02 09:02:54;;;;;;;10.98;6.88;;;;;;;;;;5075069;28;20039;-44
2021/12/02 09:05:20;;;;;;;8.13;6.28;;;;;;;;;;5074466;28;20040;-44
2021/12/02 09:07:46;;;;;;;9.05;6.20;;;;;;;;;;5074249;28;20032;-45
2021/12/02 09:10:12;;;;;;;8.68;6.15;;;;;;;;;;5075108;28;20655;-44
2021/12/02 09:12:38;;;;;;;12.73;7.47;;;;;;;;;;5079848;28;20032;-45
2021/12/02 09:15:07;;;;;;;11.27;7.72;;;;;;;;;;5072634;28;20036;-44
2021/12/02 09:17:33;;;;;;;10.52;6.70;;;;;;;;;;5077094;28;20035;-44
2021/12/02 09:19:59;;;;;;;11.93;6.85;;;;;;;;;;5077888;28;20031;-46
2021/12/02 09:22:25;;;;;;;11.90;6.38;;;;;;;;;;5073772;28;20465;-44
2021/12/02 09:24:50;;;;;;;7.50;6.10;;;;;;;;;;5079928;28;20053;-44
2021/12/02 09:27:16;;;;;;;10.95;6.22;;;;;;;;;;5082487;28;20041;-45
2021/12/02 09:29:42;;;;;;;8.20;5.45;;;;;;;;;;5078357;28;20077;-45
2021/12/02 09:32:08;;;;;;;7.20;5.93;;;;;;;;;;5078726;28;20028;-44
2021/12/02 09:34:33;;;;;;;9.15;6.30;;;;;;;;;;5077011;28;20036;-45
2021/12/02 09:36:59;;;;;;;10.93;6.25;;;;;;;;;;5082664;28;20471;-44
2021/12/02 09:39:30;;;;;;;13.18;6.55;;;;;;;;;;5076987;28;20039;-45
2021/12/02 09:41:57;;;;;;;11.15;5.68;;;;;;;;;;5075467;28;20047;-43
2021/12/02 09:44:23;;;;;;;12.00;7.13;;;;;;;;;;5081021;28;20031;-44
2021/12/02 09:46:48;;;;;;;9.07;6.60;;;;;;;;;;5083227;28;20039;-43
2021/12/02 09:49:16;;;;;;;11.90;7.85;;;;;;;;;;5079692;28;20028;-44
2021/12/02 09:54:21;;;;;;;12.20;6.53;;;;;;;;;;5083977;28;20036;-44
2021/12/02 09:56:48;;;;;;;9.13;6.80;;;;;;;;;;5079021;28;20397;-44
2021/12/02 09:59:30;;;;;;;10.43;6.75;;;;;;;;;;5086422;28;20044;-46
2021/12/02 10:02:01;;;;;;;13.25;6.85;;;;;;;;;;5075306;28;20632;-43
2021/12/02 10:04:28;;;;;;;9.70;7.00;;;;;;;;;;5082200;28;20384;-44
2021/12/02 10:07:19;;;;;;;9.90;6.90;;;;;;;;;;5083977;28;20032;-44
2021/12/02 10:10:01;;;;;;;8.45;6.20;;;;;;;;;;5080746;28;20104;-44
2021/12/02 10:12:29;;;;;;;9.57;6.63;;;;;;;;;;5078067;28;20028;-43
2021/12/02 10:14:58;;;;;;;11.45;6.88;;;;;;;;;;5076937;28;20169;-45
2021/12/02 10:17:38;;;;;;;14.50;7.43;;;;;;;;;;5081935;28;20047;-46
2021/12/02 10:23:35;;;;;;;15.30;7.03;;;;;;;;;;5083580;28;20036;-44
2021/12/02 10:26:05;;;;;;;11.18;6.47;;;;;;;;;;5075585;28;20503;-44
2021/12/02 10:28:35;;;;;;;9.10;6.30;;;;;;;;;;5079895;28;20145;-44
2021/12/02 10:31:04;;;;;;;9.93;6.18;;;;;;;;;;5082547;28;20033;-44
2021/12/02 10:33:50;;;;;;;9.80;6.32;;;;;;;;;;5077320;28;20077;-45
2021/12/02 10:36:22;;;;;;;10.05;6.25;;;;;;;;;;5079400;28;20036;-46
2021/12/02 10:38:48;;;;;;;9.73;6.28;;;;;;;;;;5078542;28;20507;-44
2021/12/02 10:41:21;;;;;;;8.82;5.93;;;;;;;;;;5086983;28;20020;-44
2021/12/02 10:44:06;;;;;;;10.05;5.47;;;;;;;;;;5080057;28;20039;-44
2021/12/02 10:46:33;;;;;;;16.83;5.80;;;;;;;;;;5077680;28;20036;-43
2021/12/02 10:49:00;;;;;;;11.25;5.60;;;;;;;;;;5080170;28;20107;-44
2021/12/02 10:51:40;;;;;;;10.30;5.70;;;;;;;;;;5081356;28;20028;-44
2021/12/02 10:54:13;;;;;;;17.70;6.57;;;;;;;;;;5078634;28;20059;-44
2021/12/02 10:56:41;;;;;;;11.32;5.25;;;;;;;;;;5076130;28;20115;-44
2021/12/02 10:59:27;;;;;;;13.48;5.30;;;;;;;;;;5083994;28;20028;-44
2021/12/02 11:02:05;;;;;;;7.50;4.63;;;;;;;;;;5088114;28;20059;-44
2021/12/02 11:04:36;;;;;;;10.05;4.22;;;;;;;;;;5079055;28;20492;-44
2021/12/02 11:07:02;;;;;;;7.53;4.40;;;;;;;;;;5075736;28;20116;-44
2021/12/02 11:09:30;;;;;;;11.70;3.92;;;;;;;;;;5081654;28;20115;-44
2021/12/02 11:12:14;;;;;;;8.68;4.55;;;;;;;;;;5081600;28;20048;-46
2021/12/02 11:14:50;;;;;;;6.00;3.72;;;;;;;;;;5074537;28;20362;-46
2021/12/02 11:17:16;;;;;;;6.55;3.60;;;;;;;;;;5074427;28;20032;-44
2021/12/02 11:19:44;;;;;;;6.22;3.25;;;;;;;;;;5083098;28;20032;-44
2021/12/02 11:22:13;;;;;;;5.35;2.70;;;;;;;;;;5075170;28;20035;-46
2021/12/02 11:24:39;;;;;;;5.43;2.72;;;;;;;;;;5078290;28;20400;-44
2021/12/02 11:27:14;;;;;;;9.00;2.67;;;;;;;;;;5076491;28;20096;-44
2021/12/02 11:29:51;;;;;;;7.60;2.90;;;;;;;;;;5078461;28;20035;-44
2021/12/02 11:32:23;;;;;;;6.93;3.22;;;;;;;;;;5080006;28;20036;-47
2021/12/02 11:35:22;;;;;;;;;;;;;;;;;;5076524;28;20465;-44
2021/12/02 11:37:51;;;;;;;6.20;2.50;;;;;;;;;;5074156;28;19920;-43
2021/12/02 11:40:27;;;;;;;6.80;2.97;;;;;;;;;;5079189;28;20485;-44
2021/12/02 11:42:54;;;;;;;7.68;2.50;;;;;;;;;;5078680;28;20420;-44
2021/12/02 11:45:23;;;;;;;5.60;2.78;;;;;;;;;;5074752;28;20111;-44
2021/12/02 11:47:50;;;;;;;5.40;2.33;;;;;;;;;;5074980;28;20067;-44
2021/12/02 11:50:19;;;;;;;6.07;2.42;;;;;;;;;;5072162;28;20503;-44
2021/12/02 11:52:46;;;;;;;7.22;2.10;;;;;;;;;;5080287;28;20112;-44
2021/12/02 11:55:21;;;;;;;5.03;1.92;;;;;;;;;;5073986;28;20040;-44
2021/12/02 11:57:48;;;;;;;5.25;2.08;;;;;;;;;;5074852;28;20036;-44
2021/12/02 12:00:17;;;;;;;3.65;2.30;;;;;;;;;;5071638;28;20552;-44
2021/12/02 12:02:55;;;;;;;4.20;1.83;;;;;;;;;;5073582;28;20047;-44
2021/12/02 12:05:27;;;;;;;5.60;2.17;;;;;;;;;;5069561;28;20143;-43
2021/12/02 12:07:53;;;;;;;4.05;1.70;;;;;;;;;;5077865;28;20382;-47
2021/12/02 12:10:25;;;;;;;4.85;1.58;;;;;;;;;;5074328;28;20032;-44
2021/12/02 12:12:52;;;;;;;1.90;1.23;;;;;;;;;;5074625;28;20536;-44
2021/12/02 12:15:32;;;;;;;3.88;1.80;;;;;;;;;;5079257;28;20119;-44
2021/12/02 12:17:58;;;;;;;4.32;1.73;;;;;;;;;;5077885;28;20033;-45
2021/12/02 12:21:04;;;;;;;3.85;1.70;;;;;;;;;;5080275;28;20111;-44
2021/12/02 12:23:32;;;;;;;4.80;1.35;;;;;;;;;;5024813;28;20057;-43
2021/12/02 12:26:12;;;;;;;7.25;1.70;;;;;;;;;;5026537;28;20037;-44
2021/12/02 12:31:33;;;;;;;3.38;1.67;;;;;;;;;;5025824;28;20053;-44
2021/12/02 12:34:00;;;;;;;6.13;2.15;;;;;;;;;;5025827;28;20029;-46
2021/12/02 12:36:36;;;;;;;2.35;1.30;;;;;;;;;;5022594;28;20041;-44
2021/12/02 12:39:23;;;;;;;3.15;1.42;;;;;;;;;;5022523;28;20044;-49
2021/12/02 12:42:16;;;;;;;3.05;1.65;;;;;;;;;;5022387;28;20069;-44
2021/12/02 12:44:55;;;;;;;2.25;1.30;;;;;;;;;;5025983;28;20033;-45
2021/12/02 12:47:46;;;;;;;14.10;1.30;;;;;;;;;;5023159;28;20210;-44
2021/12/02 12:50:24;;;;;;;4.00;1.17;;;;;;;;;;5023867;28;20056;-44
2021/12/02 12:52:57;;;;;;;1.75;1.02;;;;;;;;;;5024918;28;20609;-44
2021/12/02 12:55:23;;;;;;;3.20;1.25;;;;;;;;;;5071191;28;20131;-44
2021/12/02 12:58:10;;;;;;;2.10;0.90;;;;;;;;;;5083297;28;20061;-45
2021/12/02 13:00:39;;;;;;;3.88;1.42;;;;;;;;;;5076217;28;20032;-44
2021/12/02 13:03:15;;;;;;;3.53;1.25;;;;;;;;;;5080274;28;20024;-44
2021/12/02 13:05:57;;;;;;;1.25;1.13;;;;;;;;;;5079195;28;20423;-44
2021/12/02 13:08:26;;;;;;;0.55;0.55;;;;;;;;;;5081940;28;20028;-44
2021/12/02 13:10:57;;;;;;;2.75;1.60;;;;;;;;;;5071976;28;20063;-46
2021/12/02 13:13:30;;;;;;;4.25;1.55;;;;;;;;;;5078276;28;20064;-44
2021/12/02 13:16:15;;;;;;;1.52;1.40;;;;;;;;;;5074726;28;20044;-44
2021/12/02 13:19:01;;;;;;;3.00;1.77;;;;;;;;;;5074182;28;20043;-44
2021/12/02 13:21:30;;;;;;;4.35;1.88;;;;;;;;;;5079311;28;20481;-44
2021/12/02 13:24:01;;;;;;;2.20;1.60;;;;;;;;;;5072326;28;20056;-43
2021/12/02 13:26:37;;;;;;;2.42;1.40;;;;;;;;;;5072477;28;20059;-44
2021/12/02 13:29:12;;;;;;;1.77;1.27;;;;;;;;;;5077894;28;20051;-45
2021/12/02 13:31:41;;;;;;;1.88;1.40;;;;;;;;;;5077003;28;20028;-44
2021/12/02 13:34:12;;;;;;;3.28;1.35;;;;;;;;;;5076462;28;20103;-43
2021/12/02 13:36:44;;;;;;;3.30;1.70;;;;;;;;;;5071752;28;20120;-44
2021/12/02 13:39:21;;;;;;;4.53;2.58;;;;;;;;;;5072810;28;20040;-44
2021/12/02 13:42:02;;;;;;;3.00;1.33;;;;;;;;;;5069310;28;20037;-44
2021/12/02 13:44:32;;;;;;;2.38;1.13;;;;;;;;;;5074813;28;20071;-43
2021/12/02 13:47:12;;;;;;;2.45;1.35;;;;;;;;;;5074244;28;20056;-44
2021/12/02 13:49:39;;;;;;;1.77;1.30;;;;;;;;;;5071780;28;20025;-44
2021/12/02 13:54:57;;;;;;;1.52;1.42;;;;;;;;;;5080618;28;20056;-44
2021/12/02 13:57:36;;;;;;;4.60;1.60;;;;;;;;;;5070791;28;20125;-44
2021/12/02 14:00:28;;;;;;;2.75;1.30;;;;;;;;;;5078450;28;20028;-45
2021/12/02 14:02:59;;;;;;;2.88;1.38;;;;;;;;;;5075816;28;20028;-43
2021/12/02 14:05:27;;;;;;;3.35;1.70;;;;;;;;;;5071260;28;20101;-44
2021/12/02 14:07:55;;;;;;;1.77;1.30;;;;;;;;;;5074195;28;20119;-44
2021/12/02 14:10:27;;;;;;;3.67;1.42;;;;;;;;;;5077345;28;20028;-43
2021/12/02 14:12:59;;;;;;;2.55;1.52;;;;;;;;;;5079595;28;20381;-44
2021/12/02 14:15:28;;;;;;;3.45;1.45;;;;;;;;;;5075564;28;20036;-44
2021/12/02 14:17:54;;;;;;;5.63;1.80;;;;;;;;;;5082594;28;20024;-44
2021/12/02 14:20:23;;;;;;;3.38;1.70;;;;;;;;;;5078738;28;20034;-45
2021/12/02 14:22:52;;;;;;;2.55;1.40;;;;;;;;;;5079782;28;20028;-43
2021/12/02 14:25:20;;;;;;;3.97;1.35;;;;;;;;;;5076031;28;20135;-43
2021/12/02 14:28:06;;;;;;;3.45;1.63;;;;;;;;;;5082065;28;20021;-44
2021/12/02 14:30:43;;;;;;;4.78;1.50;;;;;;;;;;5077768;28;20445;-44
2021/12/02 14:33:11;;;;;;;2.53;1.33;;;;;;;;;;5076205;28;20036;-44
2021/12/02 14:35:45;;;;;;;18.80;7.72;;;;;;;;;;5078321;28;20036;-43
2021/12/02 14:38:24;;;;;;;7.20;2.50;;;;;;;;;;5078580;28;20055;-43
2021/12/02 14:40:53;;;;;;;6.60;2.88;;;;;;;;;;5084435;28;20032;-44
2021/12/02 14:43:23;;;;;;;3.25;1.65;;;;;;;;;;5079478;28;20025;-44
2021/12/02 14:46:08;;;;;;;7.55;3.67;;;;;;;;;;5073396;28;20033;-45
2021/12/02 14:48:34;;;;;;;3.90;2.20;;;;;;;;;;5079383;28;20028;-44
2021/12/02 14:51:03;;;;;;;1.85;1.75;;;;;;;;;;5077962;28;20487;-43
2021/12/02 14:53:43;;;;;;;2.35;2.15;;;;;;;;;;5075830;28;20043;-44
2021/12/02 14:56:27;;;;;;;2.30;1.58;;;;;;;;;;5077681;28;20161;-45
2021/12/02 14:59:16;;;;;;;4.18;1.70;;;;;;;;;;5077826;28;20350;-44
2021/12/02 15:01:56;;;;;;;2.75;2.00;;;;;;;;;;5078368;28;20619;-44
2021/12/02 15:04:24;;;;;;;3.40;1.90;;;;;;;;;;5074638;28;20028;-44
2021/12/02 15:06:50;;;;;;;2.85;1.67;;;;;;;;;;5083080;28;20036;-44
2021/12/02 15:09:34;;;;;;;2.10;1.90;;;;;;;;;;5079526;28;20322;-43
2021/12/02 15:12:11;;;;;;;4.70;1.77;;;;;;;;;;5079209;28;20028;-44